Decoded Metar for RCKH (KAOHSIUNG in TAIWAN) (IATA:KHH) | Meteo·Mobile Aviation Weather
aviador You're here:

RCKH Decoded Metar

KAOHSIUNG in TAIWAN
Report Time2019-03-22 14:00:00
UTC Time2019-03-22 14:26:13
Flight Rules vfr VFR
Wind330° at 04 kt
W.Decomp.*RWY 27: 1.8 kt HW 3.6 kt RCW
W.Rank330° ranks 18
Current wind is below 330° avg. (6.2)
Visibility9999 m
Phenomena:N/A
Clouds:Few 016 Hf
Broken 070 Hf
Expected CloudBase > 2,000 ft AGL from Temp-Dew spread
Ceiling7,000 ft
Temp26°C (ISA +11)
Dew Point21°C (74% RH)
QNH1014 hPa
Density Alt1,601 ft
Elevation30 ft
Report Wrong Elevation
Raw Report
METAR RCKH 221400Z 33004KT 290V010 9999 FEW016 BKN070 26/21 Q1014 NOSIG
RMK A2996=

Extra information for RCKH:More info

Metar Taf Metar & Taf Last 4 Metars F.Rules Stats Wind Profile Meteogram Temp Stats Airport Information Weather charts Add Link Nearby VenuesMetar ALERT Operation Metar Decoded Social comments